Time;durP1;ratioP1;P1;durP2;ratioP2;P2;SDS_P1;SDS_P2;PMS_P1;PMS_P2;Temp;Humidity;BMP_temperature;BMP_pressure;BME280_temperature;BME280_humidity;BME280_pressure;Samples;Min_cycle;Max_cycle;Signal;HPM_P1;HPM_P2
2022/05/20 00:01:39;;;;;;;6.97;4.20;;;;;;;21.23;63.71;98479.69;8481464;28;20225;-75
2022/05/20 00:05:43;;;;;;;7.50;4.60;;;;;;;21.36;62.98;98472.47;8473531;28;20408;-75
2022/05/20 00:09:46;;;;;;;8.70;4.30;;;;;;;21.50;62.46;98481.09;8481709;28;20418;-75
2022/05/20 00:13:51;;;;;;;9.13;4.60;;;;;;;21.48;62.37;98478.59;8481886;28;20232;-76
2022/05/20 00:17:54;;;;;;;9.17;4.23;;;;;;;21.46;62.06;98478.69;8481794;28;20420;-75
2022/05/20 00:21:57;;;;;;;8.13;4.30;;;;;;;21.51;62.03;98470.41;8481572;28;20426;-76
2022/05/20 00:26:00;;;;;;;11.80;4.37;;;;;;;21.42;62.70;98479.06;8481346;28;20229;-75
2022/05/20 00:30:05;;;;;;;7.30;4.20;;;;;;;21.37;62.63;98487.31;8481507;28;20228;-75
2022/05/20 00:34:08;;;;;;;8.10;4.40;;;;;;;21.37;62.61;98497.03;8481263;28;20236;-76
2022/05/20 00:38:11;;;;;;;7.10;4.17;;;;;;;21.34;62.93;98492.00;8481171;28;20240;-76
2022/05/20 00:42:16;;;;;;;5.83;4.33;;;;;;;21.23;63.23;98496.34;8481183;28;20237;-76
2022/05/20 00:46:23;;;;;;;8.50;4.50;;;;;;;21.20;63.09;98488.66;8481059;28;20543;-76
2022/05/20 00:50:26;;;;;;;10.53;4.60;;;;;;;21.26;62.90;98500.50;8446754;28;20229;-76
2022/05/20 00:54:34;;;;;;;7.77;4.70;;;;;;;21.19;62.98;98502.81;8447069;28;20296;-76
2022/05/20 00:58:37;;;;;;;11.27;4.77;;;;;;;21.20;62.97;98496.56;8447098;28;20545;-76
2022/05/20 01:02:42;;;;;;;12.80;5.17;;;;;;;21.32;62.92;98496.53;8448689;28;20230;-75
2022/05/20 01:06:45;;;;;;;7.63;4.47;;;;;;;21.21;62.81;98489.50;8457135;22;20222;-78
2022/05/20 01:10:48;;;;;;;8.37;4.87;;;;;;;21.24;62.80;98491.88;8420713;28;20241;-81
2022/05/20 01:14:52;;;;;;;9.00;5.20;;;;;;;21.05;63.15;98480.19;8420268;28;20218;-81
2022/05/20 01:18:57;;;;;;;10.13;5.20;;;;;;;21.14;62.76;98481.25;8420253;28;20230;-81
2022/05/20 01:23:09;;;;;;;9.07;5.33;;;;;;;21.05;63.36;98472.28;8419956;28;20224;-81
2022/05/20 01:27:12;;;;;;;8.13;4.67;;;;;;;21.07;62.82;98467.72;8419856;28;20245;-81
2022/05/20 01:31:16;;;;;;;10.67;4.80;;;;;;;21.11;62.98;98485.94;8419940;28;20238;-81
2022/05/20 01:35:22;;;;;;;10.77;5.13;;;;;;;21.07;62.62;98483.53;8419492;28;20305;-81
2022/05/20 01:39:27;;;;;;;7.93;5.20;;;;;;;21.05;62.54;98479.34;8394140;28;20239;-81
2022/05/20 01:43:47;;;;;;;10.73;5.10;;;;;;;21.10;62.64;98474.56;8386203;28;20227;-81
2022/05/20 01:47:54;;;;;;;11.17;5.00;;;;;;;20.95;63.16;98481.06;8385927;28;20224;-81
2022/05/20 01:52:01;;;;;;;10.07;5.03;;;;;;;21.05;62.63;98474.09;8386001;28;20228;-81
2022/05/20 01:56:10;;;;;;;7.27;5.37;;;;;;;20.96;63.15;98477.44;8385796;28;20527;-80
2022/05/20 02:00:15;;;;;;;9.50;5.27;;;;;;;20.94;62.97;98476.72;8385646;28;20230;-81
2022/05/20 02:04:22;;;;;;;6.80;5.00;;;;;;;20.83;63.36;98469.69;8385580;28;20231;-81
2022/05/20 02:08:29;;;;;;;11.30;5.40;;;;;;;20.86;63.14;98472.06;8418325;28;20236;-80
2022/05/20 02:12:37;;;;;;;10.33;6.07;;;;;;;20.60;63.79;98468.84;8418697;28;20235;-80
2022/05/20 02:16:43;;;;;;;8.67;5.87;;;;;;;20.06;66.70;98468.47;8418440;28;20237;-81
2022/05/20 02:20:48;;;;;;;8.10;5.00;;;;;;;20.54;64.67;98470.13;8418222;28;20230;-81
2022/05/20 02:24:51;;;;;;;12.43;5.70;;;;;;;20.37;64.76;98479.34;8417857;28;20230;-81
2022/05/20 02:28:58;;;;;;;9.07;5.23;;;;;;;20.53;63.96;98475.53;8417985;28;20497;-81
2022/05/20 02:33:06;;;;;;;9.83;5.27;;;;;;;20.62;63.72;98474.81;8418034;28;20238;-81
2022/05/20 02:37:24;;;;;;;8.63;5.10;;;;;;;20.71;63.31;98466.22;8417669;28;20235;-81
2022/05/20 02:41:27;;;;;;;11.17;5.53;;;;;;;20.51;64.16;98463.31;8391456;28;20245;-81
2022/05/20 02:45:33;;;;;;;10.97;5.50;;;;;;;20.51;64.11;98465.09;8384201;28;20249;-81
2022/05/20 02:49:36;;;;;;;8.80;5.43;;;;;;;20.56;64.05;98470.88;8384211;28;20242;-80
2022/05/20 02:53:39;;;;;;;8.60;5.70;;;;;;;20.51;63.61;98476.47;8383936;28;20235;-81
2022/05/20 02:57:44;;;;;;;13.77;5.77;;;;;;;20.13;65.25;98484.66;8384194;28;20242;-81
2022/05/20 03:06:11;;;;;;;7.70;6.10;;;;;;;20.41;64.17;98487.78;8342015;28;20255;-81
2022/05/20 03:10:14;;;;;;;8.13;5.50;;;;;;;20.36;64.30;98488.16;8383669;28;20235;-80
2022/05/20 03:14:19;;;;;;;8.07;5.37;;;;;;;20.39;64.25;98476.56;8383535;28;20239;-81
2022/05/20 03:18:23;;;;;;;5.87;5.20;;;;;;;20.48;63.54;98475.84;8391223;28;20560;-77
2022/05/20 03:22:26;;;;;;;9.93;5.90;;;;;;;20.53;63.54;98467.63;8383305;28;20240;-80
2022/05/20 03:26:29;;;;;;;7.20;6.17;;;;;;;20.34;64.41;98479.56;8382368;28;20239;-81
2022/05/20 03:30:32;;;;;;;7.07;5.70;;;;;;;20.18;65.12;98469.38;8383074;28;20539;-81
2022/05/20 03:34:36;;;;;;;11.07;6.20;;;;;;;20.43;63.78;98481.47;8382412;28;20250;-80
2022/05/20 03:38:40;;;;;;;9.43;6.57;;;;;;;20.40;63.75;98478.25;8382827;28;20229;-81
2022/05/20 03:42:43;;;;;;;7.90;6.23;;;;;;;20.49;63.71;98478.38;8382538;28;20233;-81
2022/05/20 03:46:48;;;;;;;10.30;6.70;;;;;;;20.46;64.09;98488.28;8382354;28;20394;-81
2022/05/20 03:50:52;;;;;;;12.33;6.60;;;;;;;20.55;63.94;98494.66;8382376;28;20233;-81
2022/05/20 03:54:56;;;;;;;10.67;6.47;;;;;;;20.53;63.69;98494.75;8382152;28;20236;-81
2022/05/20 03:58:59;;;;;;;10.93;7.00;;;;;;;20.59;63.98;98503.97;8382122;28;20226;-81
2022/05/20 04:03:02;;;;;;;10.23;6.80;;;;;;;20.57;63.66;98500.63;8381941;28;20225;-81
2022/05/20 04:07:08;;;;;;;9.33;6.97;;;;;;;20.54;64.15;98511.38;8381765;28;20407;-80
2022/05/20 04:11:12;;;;;;;10.67;7.20;;;;;;;20.61;63.52;98516.09;8381555;28;20232;-81
2022/05/20 04:15:16;;;;;;;11.93;6.83;;;;;;;20.70;63.55;98519.81;8381398;28;20233;-81
2022/05/20 04:19:18;;;;;;;7.77;6.20;;;;;;;20.62;63.57;98511.66;8381581;28;20235;-81
2022/05/20 04:23:23;;;;;;;9.97;6.57;;;;;;;20.77;63.21;98505.22;8381329;28;20303;-81
2022/05/20 04:27:27;;;;;;;8.37;6.23;;;;;;;20.80;63.31;98496.25;8380836;28;20241;-81
2022/05/20 04:31:31;;;;;;;10.00;6.40;;;;;;;20.66;64.01;98487.63;8381327;28;20230;-81
2022/05/20 04:35:34;;;;;;;10.70;7.20;;;;;;;20.43;64.85;98478.03;8380933;28;20592;-81
2022/05/20 04:39:38;;;;;;;13.83;6.77;;;;;;;20.03;66.42;98462.63;8348101;28;20235;-81
2022/05/20 04:48:01;;;;;;;12.17;6.50;;;;;;;20.30;64.97;98475.50;8347747;28;20257;-83
2022/05/20 04:52:05;;;;;;;8.27;6.47;;;;;;;20.18;65.45;98476.41;8367110;28;20404;-80
2022/05/20 04:56:10;;;;;;;10.47;7.13;;;;;;;20.15;65.66;98476.66;8380591;28;20423;-79
2022/05/20 05:00:15;;;;;;;11.20;7.47;;;;;;;19.98;66.18;98476.13;8380273;28;20234;-80
2022/05/20 05:04:19;;;;;;;14.67;8.17;;;;;;;19.99;66.29;98471.69;8380369;28;20243;-80
2022/05/20 05:08:22;;;;;;;10.93;7.77;;;;;;;20.11;66.35;98470.78;8379836;28;20422;-77
2022/05/20 05:12:26;;;;;;;11.07;7.23;;;;;;;20.17;65.87;98465.06;8379742;28;20235;-79
2022/05/20 05:16:29;;;;;;;11.23;6.87;;;;;;;19.93;67.29;98454.59;8380393;28;20234;-80
2022/05/20 05:20:33;;;;;;;10.93;7.23;;;;;;;19.91;67.25;98464.38;8380289;28;20357;-80
2022/05/20 05:24:37;;;;;;;10.83;7.20;;;;;;;20.05;66.69;98458.94;8380367;28;20239;-80
2022/05/20 05:28:43;;;;;;;9.30;6.97;;;;;;;19.44;68.59;98466.91;8379949;28;20529;-79
2022/05/20 05:32:46;;;;;;;10.40;6.73;;;;;;;20.08;67.43;98458.69;8380024;28;20298;-80
2022/05/20 05:36:49;;;;;;;10.27;6.97;;;;;;;20.34;65.32;98453.25;8379748;28;20225;-80
2022/05/20 05:40:52;;;;;;;9.50;7.33;;;;;;;20.49;65.29;98461.75;8380050;28;20225;-80
2022/05/20 05:44:57;;;;;;;10.37;7.07;;;;;;;20.55;64.97;98463.09;8380004;28;20227;-80
2022/05/20 05:49:00;;;;;;;15.53;7.80;;;;;;;20.63;64.93;98471.25;8381661;28;20234;-80
2022/05/20 05:53:08;;;;;;;8.53;7.07;;;;;;;20.84;63.99;98476.63;8385753;28;20235;-80
2022/05/20 05:57:11;;;;;;;11.80;7.40;;;;;;;20.81;64.20;98477.72;8385986;28;20244;-79
2022/05/20 06:01:17;;;;;;;14.93;8.37;;;;;;;20.79;64.58;98470.88;8385827;28;20429;-80
2022/05/20 06:05:20;;;;;;;9.93;7.33;;;;;;;21.21;63.32;98466.66;8385643;28;20521;-80
2022/05/20 06:09:23;;;;;;;11.47;7.67;;;;;;;20.80;65.85;98456.78;8385060;28;20239;-80
2022/05/20 06:13:28;;;;;;;11.70;7.93;;;;;;;20.87;66.21;98447.44;8385303;28;20230;-79
2022/05/20 06:17:33;;;;;;;13.07;6.97;;;;;;;21.39;64.10;98450.31;8385166;28;20333;-80
2022/05/20 06:21:37;;;;;;;9.90;8.77;;;;;;;21.10;65.01;98440.34;8384985;28;20240;-80
2022/05/20 06:25:41;;;;;;;8.77;7.80;;;;;;;21.36;63.97;98461.09;8384942;28;20240;-79
2022/05/20 06:30:05;;;;;;;10.93;7.53;;;;;;;21.56;63.01;98457.72;8384931;28;20231;-80
2022/05/20 06:34:09;;;;;;;9.60;7.50;;;;;;;21.40;63.76;98458.09;8384997;28;20399;-78
2022/05/20 06:42:32;;;;;;;10.10;7.47;;;;;;;22.03;62.78;98466.13;8384218;28;20243;-80
2022/05/20 06:46:36;;;;;;;12.80;8.10;;;;;;;21.64;62.56;98454.44;8384302;28;20246;-80
2022/05/20 06:50:42;;;;;;;8.30;6.40;;;;;;;21.80;61.21;98446.09;8384295;28;20230;-79
2022/05/20 06:54:45;;;;;;;11.70;6.50;;;;;;;22.18;61.11;98444.69;8384379;28;20283;-80
2022/05/20 06:58:53;;;;;;;9.10;6.50;;;;;;;22.40;60.51;98451.66;8383869;28;20291;-79
2022/05/20 07:02:56;;;;;;;9.50;6.60;;;;;;;22.26;60.78;98452.84;8383078;28;20234;-80
2022/05/20 07:07:01;;;;;;;8.40;6.57;;;;;;;22.71;59.45;98462.22;8383237;28;20250;-80
2022/05/20 07:11:04;;;;;;;9.30;6.43;;;;;;;23.06;58.77;98467.09;8383687;28;20547;-80
2022/05/20 07:15:14;;;;;;;8.23;6.43;;;;;;;23.09;57.87;98469.44;8383330;28;20231;-80
2022/05/20 07:19:17;;;;;;;8.60;6.27;;;;;;;23.42;57.07;98459.53;8383365;28;20227;-80
2022/05/20 07:23:24;;;;;;;11.03;6.13;;;;;;;23.23;57.54;98447.13;8383143;28;20237;-80
2022/05/20 07:27:27;;;;;;;12.87;7.67;;;;;;;22.55;59.07;98452.97;8382289;28;20289;-80
2022/05/20 07:31:31;;;;;;;8.77;6.33;;;;;;;23.15;58.54;98454.88;8409200;28;20257;-80
2022/05/20 07:35:35;;;;;;;11.30;8.10;;;;;;;22.87;58.26;98443.25;8415851;28;20230;-80
2022/05/20 07:39:39;;;;;;;9.97;7.77;;;;;;;23.50;56.64;98446.44;8416222;28;20241;-81
2022/05/20 07:43:42;;;;;;;8.37;6.97;;;;;;;24.17;55.60;98443.91;8416071;28;20227;-80
2022/05/20 07:47:46;;;;;;;14.43;6.90;;;;;;;24.40;54.68;98450.53;8415015;28;20291;-80
2022/05/20 07:51:50;;;;;;;7.63;6.77;;;;;;;24.73;54.85;98452.81;8396912;28;20518;-80
2022/05/20 07:55:57;;;;;;;10.47;6.70;;;;;;;24.51;55.18;98473.38;8382293;28;20231;-80
2022/05/20 08:00:00;;;;;;;9.07;7.30;;;;;;;24.40;55.72;98479.63;8382486;28;20415;-80
2022/05/20 08:08:27;;;;;;;8.80;6.27;;;;;;;24.89;56.06;98479.50;8380073;28;20227;-79
2022/05/20 08:12:32;;;;;;;13.33;6.20;;;;;;;25.24;55.43;98479.78;8380499;28;20239;-80
2022/05/20 08:16:35;;;;;;;13.70;6.60;;;;;;;25.43;54.76;98481.47;8380455;28;20229;-80
2022/05/20 08:20:38;;;;;;;11.43;6.80;;;;;;;25.84;53.25;98484.53;8380357;28;20236;-81
2022/05/20 08:24:41;;;;;;;12.13;6.43;;;;;;;26.11;52.47;98479.13;8380633;28;20234;-80
2022/05/20 08:28:46;;;;;;;9.40;7.33;;;;;;;26.03;52.54;98470.28;8380227;28;20531;-80
2022/05/20 08:32:49;;;;;;;9.80;6.20;;;;;;;26.61;52.83;98485.59;8380125;28;20253;-80
2022/05/20 08:36:52;;;;;;;10.47;6.50;;;;;;;26.74;53.02;98477.22;8380281;28;20416;-79
2022/05/20 08:40:55;;;;;;;12.73;7.20;;;;;;;27.01;50.29;98462.88;8379766;28;20231;-79
2022/05/20 08:45:00;;;;;;;13.30;7.07;;;;;;;26.44;50.39;98458.09;8385099;28;20227;-81
2022/05/20 08:49:02;;;;;;;9.40;6.17;;;;;;;26.84;52.50;98446.03;8409847;28;20233;-81
2022/05/20 08:53:11;;;;;;;14.23;7.63;;;;;;;26.18;50.91;98442.19;8384271;28;20531;-81
2022/05/20 08:57:23;;;;;;;14.90;7.60;;;;;;;25.76;52.20;98429.59;8380635;28;20435;-85
2022/05/20 09:01:34;;;;;;;10.70;7.13;;;;;;;26.12;50.46;98424.22;8361411;28;20231;-86
2022/05/20 09:05:39;;;;;;;8.33;5.27;;;;;;;26.89;49.48;98429.63;8306441;28;1396922;-87
2022/05/20 09:09:45;;;;;;;10.37;5.37;;;;;;;27.03;47.38;98421.03;8349663;28;20254;-81
2022/05/20 09:18:13;;;;;;;10.43;5.83;;;;;;;26.43;48.67;98419.28;8351627;28;20239;-83
2022/05/20 09:22:16;;;;;;;9.97;5.80;;;;;;;26.26;50.19;98415.69;8350413;28;20244;-82
2022/05/20 09:26:22;;;;;;;15.00;7.40;;;;;;;26.53;48.02;98412.00;8357133;28;20243;-88
2022/05/20 09:30:25;;;;;;;9.33;5.47;;;;;;;27.26;48.31;98394.72;8357320;28;20257;-87
2022/05/20 09:34:55;;;;;;;9.37;6.17;;;;;;;27.32;47.33;98390.53;8354228;28;20267;-83
2022/05/20 09:39:08;;;;;;;13.10;5.83;;;;;;;27.33;45.45;98384.22;8353985;28;20234;-82
2022/05/20 09:43:22;;;;;;;7.67;5.93;;;;;;;27.60;45.48;98366.28;8353323;28;20541;-82
2022/05/20 09:47:30;;;;;;;8.40;5.43;;;;;;;28.09;45.56;98366.25;8386292;28;20233;-84
2022/05/20 09:51:41;;;;;;;10.13;5.10;;;;;;;28.39;44.84;98372.66;8386706;28;20234;-84
2022/05/20 09:55:45;;;;;;;8.93;5.83;;;;;;;28.33;44.35;98364.50;8386440;28;20241;-84
2022/05/20 09:59:53;;;;;;;9.27;5.80;;;;;;;28.52;45.93;98364.16;8385889;28;20250;-88
2022/05/20 10:03:58;;;;;;;8.20;5.80;;;;;;;28.62;44.46;98350.63;8385773;28;20224;-85
2022/05/20 10:08:16;;;;;;;11.50;5.97;;;;;;;28.62;42.86;98350.63;8386155;28;20230;-85
2022/05/20 10:12:28;;;;;;;10.93;5.97;;;;;;;28.81;44.08;98349.38;8385649;28;20357;-85
2022/05/20 10:16:36;;;;;;;9.30;5.90;;;;;;;28.64;44.00;98344.13;8391901;28;20234;-94
2022/05/20 10:20:43;;;;;;;7.53;4.93;;;;;;;28.93;43.15;98325.81;8385775;28;20237;-85
2022/05/20 10:24:53;;;;;;;9.67;5.83;;;;;;;28.11;44.54;98321.66;8385601;28;20235;-90
2022/05/20 10:33:25;;;;;;;12.47;5.47;;;;;;;28.85;42.56;98297.38;8401116;28;20249;-86
2022/05/20 10:37:34;;;;;;;7.70;5.30;;;;;;;29.05;41.74;98290.56;8394487;28;20240;-86
2022/05/20 10:41:51;;;;;;;9.57;4.97;;;;;;;29.75;44.20;98293.16;8410370;28;20233;-88
2022/05/20 10:50:24;;;;;;;9.87;5.37;;;;;;;29.78;41.93;98280.28;8389393;28;20251;-85
2022/05/20 10:54:43;;;;;;;9.17;6.03;;;;;;;29.46;41.76;98276.06;8417843;28;20553;-87
2022/05/20 10:59:16;;;;;;;7.20;5.13;;;;;;;29.56;40.32;98275.81;8417935;28;20232;-85
2022/05/20 11:03:52;;;;;;;9.77;5.37;;;;;;;29.97;40.55;98270.91;8404574;28;20237;-83
2022/05/20 11:08:18;;;;;;;11.27;5.30;;;;;;;29.90;39.21;98264.63;8381203;28;20334;-85
2022/05/20 11:12:26;;;;;;;9.30;5.50;;;;;;;29.93;40.66;98239.41;8383941;28;20231;-83
2022/05/20 11:16:55;;;;;;;10.87;5.93;;;;;;;29.93;41.03;98215.38;8383317;28;20253;-80
2022/05/20 11:21:27;;;;;;;11.07;6.27;;;;;;;29.81;41.09;98228.38;8351216;28;20232;-81
2022/05/20 11:26:03;;;;;;;10.83;5.80;;;;;;;30.29;40.43;98223.44;8414894;28;20225;-79
2022/05/20 11:30:21;;;;;;;10.20;6.40;;;;;;;30.86;41.17;98227.13;8374879;28;20233;-77
2022/05/20 11:34:53;;;;;;;12.10;6.40;;;;;;;31.01;41.66;98224.41;8383022;28;20231;-79
2022/05/20 11:39:30;;;;;;;10.50;6.40;;;;;;;31.21;39.61;98218.41;8382983;28;20394;-77
2022/05/20 11:43:49;;;;;;;9.23;6.47;;;;;;;30.96;40.77;98202.78;8382890;28;20232;-77
2022/05/20 11:48:20;;;;;;;12.33;7.37;;;;;;;30.98;39.54;98177.50;8382517;28;20553;-76
2022/05/20 11:52:48;;;;;;;9.53;7.10;;;;;;;30.90;40.51;98155.41;8415442;28;20229;-76
2022/05/20 11:56:55;;;;;;;9.90;6.33;;;;;;;31.25;40.22;98153.63;8415560;28;20228;-76
2022/05/20 12:00:59;;;;;;;12.73;7.67;;;;;;;30.32;41.22;98155.47;8389623;28;20412;-77
2022/05/20 12:05:03;;;;;;;13.73;7.20;;;;;;;31.09;39.57;98146.72;8403957;28;20235;-76
2022/05/20 12:09:28;;;;;;;10.17;7.00;;;;;;;31.18;38.42;98139.38;8381844;28;20235;-78
2022/05/20 12:13:31;;;;;;;13.67;6.77;;;;;;;31.33;38.18;98153.44;8374185;28;20240;-79
2022/05/20 12:17:35;;;;;;;14.47;7.20;;;;;;;31.11;39.92;98143.84;8381510;28;20238;-78
2022/05/20 12:26:27;;;;;;;10.37;6.23;;;;;;;31.48;38.70;98115.91;8389637;28;20509;-79
2022/05/20 12:30:37;;;;;;;11.03;5.80;;;;;;;31.34;37.93;98111.50;8396276;28;20236;-78
2022/05/20 12:34:42;;;;;;;11.33;5.50;;;;;;;30.88;39.29;98099.44;8348160;28;20237;-80
2022/05/20 12:38:46;;;;;;;17.03;5.90;;;;;;;30.97;39.94;98084.91;8348513;28;20233;-79
2022/05/20 12:43:00;;;;;;;8.47;4.90;;;;;;;31.58;40.73;98069.22;8348498;28;20228;-77
2022/05/20 12:47:09;;;;;;;12.67;5.50;;;;;;;31.69;37.56;98057.94;8348739;28;20229;-78
2022/05/20 12:51:13;;;;;;;12.37;4.93;;;;;;;31.98;36.98;98038.00;8360955;28;20238;-79
2022/05/20 12:55:20;;;;;;;7.40;4.87;;;;;;;32.15;38.91;98028.59;8381336;28;20281;-79
2022/05/20 12:59:25;;;;;;;8.97;5.70;;;;;;;31.56;40.04;98018.56;8382474;28;20426;-78
2022/05/20 13:03:31;;;;;;;11.90;5.30;;;;;;;31.26;37.96;98002.78;8402376;28;20228;-78
2022/05/20 13:07:35;;;;;;;11.83;5.20;;;;;;;31.21;38.71;97985.72;8382666;28;20238;-79
2022/05/20 13:11:44;;;;;;;9.00;4.73;;;;;;;31.51;38.19;97967.50;8406887;28;20242;-79
2022/05/20 13:15:52;;;;;;;10.40;5.07;;;;;;;31.61;37.07;97969.81;8414109;28;20234;-79
2022/05/20 13:19:57;;;;;;;8.87;4.73;;;;;;;32.02;36.09;97968.84;8414389;28;20458;-80
2022/05/20 13:24:00;;;;;;;6.87;4.37;;;;;;;32.05;35.31;97938.97;8413967;28;20554;-79
2022/05/20 13:28:03;;;;;;;8.83;4.57;;;;;;;32.17;36.36;97942.66;8414810;28;20227;-79
2022/05/20 13:32:17;;;;;;;6.03;4.37;;;;;;;32.38;37.21;97935.44;8414066;28;20231;-79
2022/05/20 13:36:23;;;;;;;8.60;4.20;;;;;;;32.26;36.38;97932.56;8413970;28;20240;-81
2022/05/20 13:40:29;;;;;;;13.80;5.07;;;;;;;32.19;36.06;97919.19;8413547;28;20232;-78
2022/05/20 13:44:32;;;;;;;7.17;4.53;;;;;;;32.36;35.94;97902.69;8413616;28;20413;-80
2022/05/20 13:53:00;;;;;;;9.50;4.20;;;;;;;32.49;37.28;97881.22;8413273;28;20506;-80
2022/05/20 13:57:05;;;;;;;6.87;3.80;;;;;;;32.40;35.07;97874.44;8413440;28;20225;-78
2022/05/20 14:01:11;;;;;;;8.87;4.10;;;;;;;32.34;33.81;97868.03;8413167;28;20230;-81
2022/05/20 14:05:21;;;;;;;8.07;3.87;;;;;;;32.30;32.68;97864.16;8413007;28;20237;-80
2022/05/20 14:09:24;;;;;;;11.07;4.07;;;;;;;32.09;32.25;97855.31;8413740;28;20434;-80
2022/05/20 14:13:28;;;;;;;7.17;3.70;;;;;;;32.35;32.56;97850.94;8418751;28;20234;-78
2022/05/20 14:17:32;;;;;;;9.57;4.03;;;;;;;32.49;33.28;97851.72;8418710;28;20242;-79
2022/05/20 14:21:38;;;;;;;6.63;3.83;;;;;;;32.14;32.42;97844.81;8418247;28;20240;-79
2022/05/20 14:25:47;;;;;;;7.03;3.10;;;;;;;32.13;31.43;97836.97;8418242;28;20251;-78
2022/05/20 14:29:51;;;;;;;7.50;3.50;;;;;;;32.04;32.34;97832.88;8418050;28;20244;-76
2022/05/20 14:33:57;;;;;;;8.47;3.80;;;;;;;31.60;30.70;97831.66;8418045;28;20228;-79
2022/05/20 14:38:05;;;;;;;9.90;3.60;;;;;;;31.55;30.99;97824.25;8417789;28;20229;-78
2022/05/20 14:42:10;;;;;;;11.30;3.33;;;;;;;31.43;31.76;97823.19;8417994;28;20228;-79
2022/05/20 14:47:14;;;;;;;8.80;3.07;;;;;;;31.56;32.53;97810.66;8417818;28;20408;-79
2022/05/20 14:50:48;;;;;;;8.90;3.60;;;;;;;31.58;31.01;97791.72;8417222;28;20262;-78
2022/05/20 14:54:52;;;;;;;6.57;3.40;;;;;;;31.61;32.39;97804.69;8417556;28;20239;-79
2022/05/20 14:58:59;;;;;;;8.40;3.70;;;;;;;31.24;33.01;97806.09;8416739;28;20224;-78
2022/05/20 15:03:02;;;;;;;9.37;3.90;;;;;;;30.84;33.04;97808.66;8417352;28;20233;-78
2022/05/20 15:07:05;;;;;;;7.47;3.70;;;;;;;30.60;33.63;97816.19;8417074;28;20239;-79
2022/05/20 15:11:14;;;;;;;11.70;3.73;;;;;;;30.57;34.10;97803.22;8417110;28;20241;-79
2022/05/20 15:15:19;;;;;;;6.53;3.47;;;;;;;30.64;35.44;97804.06;8416781;28;20392;-80
2022/05/20 15:19:21;;;;;;;8.30;3.80;;;;;;;30.59;35.39;97785.94;8416767;28;20253;-79
2022/05/20 15:23:29;;;;;;;8.30;3.50;;;;;;;30.73;35.34;97783.31;8414986;28;20233;-79
2022/05/20 15:27:34;;;;;;;8.40;3.80;;;;;;;30.37;35.80;97771.91;8416476;28;20228;-80
2022/05/20 15:35:59;;;;;;;5.73;3.40;;;;;;;30.05;37.34;97768.03;8416052;28;20237;-80
2022/05/20 15:40:05;;;;;;;8.90;3.50;;;;;;;29.88;38.38;97769.38;8416288;28;20232;-79
2022/05/20 15:44:10;;;;;;;7.47;3.77;;;;;;;29.76;39.17;97761.09;8416240;28;20235;-80
2022/05/20 15:48:13;;;;;;;9.67;3.70;;;;;;;29.78;41.32;97748.38;8415740;28;20422;-77
2022/05/20 15:52:19;;;;;;;6.67;3.80;;;;;;;29.52;45.46;97738.31;8415984;28;20231;-81
2022/05/20 15:56:23;;;;;;;7.43;4.00;;;;;;;29.25;40.57;97732.78;8415216;28;20237;-79
2022/05/20 16:00:28;;;;;;;4.90;3.70;;;;;;;29.16;42.08;97713.41;8415351;28;20245;-78
2022/05/20 16:04:31;;;;;;;9.47;3.67;;;;;;;29.03;42.35;97723.94;8408136;28;20228;-81
2022/05/20 16:08:34;;;;;;;10.93;4.17;;;;;;;28.87;42.85;97692.25;8399802;28;20237;-79
2022/05/20 16:12:37;;;;;;;6.67;3.80;;;;;;;28.69;42.98;97706.81;8414701;28;20236;-84
2022/05/20 16:16:42;;;;;;;37.10;6.73;;;;;;;27.21;49.95;97947.75;8415128;28;20427;-81
2022/05/20 16:20:47;;;;;;;16.07;5.07;;;;;;;23.01;60.18;97869.78;8415031;28;20535;-77
2022/05/20 16:24:50;;;;;;;12.20;3.20;;;;;;;23.09;56.15;97721.16;8414509;28;20223;-79
2022/05/20 16:28:54;;;;;;;10.53;1.53;;;;;;;23.33;56.73;97660.59;8414271;28;20226;-77
2022/05/20 16:32:58;;;;;;;5.67;1.77;;;;;;;23.93;57.36;97694.13;8414054;28;20397;-78
2022/05/20 16:37:01;;;;;;;7.20;2.50;;;;;;;24.31;56.79;97736.09;8414135;28;20218;-77
2022/05/20 16:41:05;;;;;;;9.70;2.20;;;;;;;24.33;57.50;97713.78;8414232;28;20230;-77
2022/05/20 16:45:10;;;;;;;8.03;2.33;;;;;;;24.33;57.45;97771.16;8414097;28;20224;-78
2022/05/20 16:49:16;;;;;;;9.50;3.00;;;;;;;24.04;56.85;97843.75;8414073;28;20434;-79
2022/05/20 16:53:20;;;;;;;7.13;2.77;;;;;;;23.52;57.71;97835.78;8412809;28;20269;-80
2022/05/20 17:01:50;;;;;;;11.13;3.27;;;;;;;21.98;59.36;97827.59;8413876;28;20412;-81
2022/05/20 17:05:55;;;;;;;9.17;3.40;;;;;;;22.99;57.27;97834.78;8413331;28;20329;-82
2022/05/20 17:09:58;;;;;;;10.07;2.90;;;;;;;23.31;58.53;97839.56;8413136;28;20226;-80
2022/05/20 17:14:07;;;;;;;8.10;3.17;;;;;;;22.59;59.96;97847.38;8413533;28;20226;-79
2022/05/20 17:18:10;;;;;;;10.60;2.83;;;;;;;22.42;60.13;97851.59;8413441;28;20429;-78
2022/05/20 17:26:36;;;;;;;11.13;3.10;;;;;;;23.03;60.57;97857.28;8396422;28;20243;-78
2022/05/20 17:30:43;;;;;;;7.47;3.17;;;;;;;23.17;60.06;97853.28;8399366;28;20275;-78
2022/05/20 17:34:46;;;;;;;11.90;3.40;;;;;;;22.80;60.98;97838.38;8405033;28;20230;-79
2022/05/20 17:38:51;;;;;;;12.30;3.97;;;;;;;22.70;61.76;97803.28;8398390;28;20232;-78
2022/05/20 17:42:54;;;;;;;11.70;3.13;;;;;;;23.01;60.54;97793.19;8400992;28;20238;-77
2022/05/20 17:46:58;;;;;;;8.57;3.33;;;;;;;23.30;59.78;97771.03;8409462;28;20227;-77
2022/05/20 17:51:01;;;;;;;14.40;3.90;;;;;;;23.50;60.29;97755.81;8410610;28;20268;-77
2022/05/20 17:55:07;;;;;;;6.63;3.50;;;;;;;23.49;59.67;97739.13;8419296;28;20231;-78
2022/05/20 17:59:10;;;;;;;8.63;3.70;;;;;;;23.65;60.48;97738.41;8418839;28;20243;-80
2022/05/20 18:03:13;;;;;;;12.30;4.17;;;;;;;23.74;60.28;97732.19;8418572;28;20239;-80
2022/05/20 18:07:17;;;;;;;8.10;3.43;;;;;;;23.75;60.09;97738.28;8410225;28;20591;-78
2022/05/20 18:11:22;;;;;;;12.90;4.00;;;;;;;23.86;60.99;97746.00;8409930;28;20433;-78
2022/05/20 18:15:24;;;;;;;8.83;3.73;;;;;;;23.90;60.76;97757.09;8401451;28;20236;-76
2022/05/20 18:19:27;;;;;;;9.70;4.23;;;;;;;23.74;60.53;97753.34;8402435;28;20234;-76
2022/05/20 18:23:30;;;;;;;8.50;3.93;;;;;;;23.59;60.82;97752.25;8410029;28;20238;-77
2022/05/20 18:27:34;;;;;;;7.93;3.67;;;;;;;23.65;61.32;97759.56;8408321;28;20532;-77
2022/05/20 18:31:38;;;;;;;9.80;4.03;;;;;;;23.77;61.23;97774.16;8403462;28;20559;-77
2022/05/20 18:40:01;;;;;;;13.13;6.20;;;;;;;23.66;62.54;97768.31;8404046;28;20314;-78
2022/05/20 18:44:06;;;;;;;9.87;4.03;;;;;;;23.71;63.56;97776.59;8406890;28;20226;-79
2022/05/20 18:48:09;;;;;;;8.40;4.57;;;;;;;23.68;63.91;97782.19;8409102;28;20223;-79
2022/05/20 18:52:14;;;;;;;13.80;4.53;;;;;;;23.71;64.28;97772.16;8393542;28;20243;-80
2022/05/20 18:56:17;;;;;;;10.83;4.70;;;;;;;23.74;64.00;97776.28;8383868;28;20235;-78
2022/05/20 19:00:24;;;;;;;7.47;4.80;;;;;;;23.75;63.86;97783.25;8384302;28;20243;-77
2022/05/20 19:04:27;;;;;;;10.30;5.10;;;;;;;23.65;65.29;97756.91;8391306;28;20532;-76
2022/05/20 19:08:30;;;;;;;10.50;5.07;;;;;;;23.71;65.52;97817.09;8383473;28;20244;-77
2022/05/20 19:12:33;;;;;;;11.97;5.27;;;;;;;23.59;64.79;97791.91;8383456;28;20236;-77
2022/05/20 19:16:38;;;;;;;14.07;5.70;;;;;;;23.63;64.17;97777.38;8383493;28;20542;-78
2022/05/20 19:20:40;;;;;;;47.37;28.67;;;;;;;23.85;60.06;97769.94;8384963;28;20247;-79
2022/05/20 19:24:43;;;;;;;45.17;23.63;;;;;;;23.98;59.29;97773.81;8373399;28;20236;-81
2022/05/20 19:28:46;;;;;;;23.93;16.97;;;;;;;24.07;59.81;97779.16;8350204;28;20220;-81
2022/05/20 19:32:52;;;;;;;17.63;9.70;;;;;;;24.13;59.31;97773.22;8350218;28;20225;-81
2022/05/20 19:36:55;;;;;;;18.43;13.17;;;;;;;24.09;59.16;97791.22;8349910;28;20235;-80
2022/05/20 19:40:58;;;;;;;24.63;12.63;;;;;;;24.19;59.04;97799.84;8350096;28;20233;-79
2022/05/20 19:45:01;;;;;;;15.73;10.63;;;;;;;24.24;58.45;97795.91;8349874;28;20243;-80
2022/05/20 19:49:06;;;;;;;22.60;13.73;;;;;;;24.35;58.02;97783.25;8349660;28;20235;-79
2022/05/20 19:53:09;;;;;;;22.70;12.23;;;;;;;24.29;58.77;97789.16;8377839;28;20228;-80
2022/05/20 20:01:33;;;;;;;17.57;8.83;;;;;;;24.29;57.92;97802.38;8414966;28;20525;-80
2022/05/20 20:05:39;;;;;;;17.07;8.20;;;;;;;24.32;58.36;97802.06;8415286;28;20231;-78
2022/05/20 20:09:42;;;;;;;15.40;7.80;;;;;;;24.31;56.93;97826.03;8414115;28;20309;-80
2022/05/20 20:13:45;;;;;;;20.20;9.37;;;;;;;24.25;57.96;97824.84;8354521;28;20238;-81